createdAt,value
2018-09-11T00:02:09.579Z,20.10
2018-09-11T00:04:40.779Z,20.20
2018-09-11T00:07:11.755Z,20.20
2018-09-11T00:09:42.795Z,20.00
2018-09-11T00:12:14.155Z,19.90
2018-09-11T00:14:45.610Z,19.80
2018-09-11T00:17:16.915Z,19.80
2018-09-11T00:19:48.089Z,19.80
2018-09-11T00:22:19.332Z,19.70
2018-09-11T00:24:50.808Z,19.60
2018-09-11T00:27:22.259Z,19.70
2018-09-11T00:29:53.495Z,19.60
2018-09-11T00:32:24.851Z,19.50
2018-09-11T00:34:56.079Z,19.50
2018-09-11T00:37:27.286Z,19.50
2018-09-11T00:39:58.641Z,19.70
2018-09-11T00:42:29.629Z,19.80
2018-09-11T00:45:01.169Z,19.80
2018-09-11T00:47:32.213Z,19.70
2018-09-11T00:50:03.413Z,19.80
2018-09-11T00:52:34.563Z,19.80
2018-09-11T00:55:06.050Z,19.80
2018-09-11T00:57:37.400Z,19.90
2018-09-11T01:00:09.260Z,20.00
2018-09-11T01:02:40.328Z,19.80
2018-09-11T01:05:11.523Z,19.80
2018-09-11T01:07:42.715Z,19.80
2018-09-11T01:10:13.999Z,20.00
2018-09-11T01:12:45.085Z,19.90
2018-09-11T01:15:16.332Z,19.90
2018-09-11T01:17:48.034Z,19.90
2018-09-11T01:20:19.269Z,19.80
2018-09-11T01:22:50.647Z,19.80
2018-09-11T01:25:21.881Z,19.70
2018-09-11T01:27:53.242Z,19.60
2018-09-11T01:30:24.751Z,19.50
2018-09-11T01:32:55.839Z,19.30
2018-09-11T01:35:27.023Z,19.20
2018-09-11T01:37:58.058Z,19.30
2018-09-11T01:40:29.205Z,19.40
2018-09-11T01:43:00.366Z,19.50
2018-09-11T01:45:31.472Z,19.40
2018-09-11T01:48:02.787Z,19.50
2018-09-11T01:50:33.781Z,19.40
2018-09-11T01:53:04.786Z,19.50
2018-09-11T01:55:36.539Z,19.50
2018-09-11T01:58:07.943Z,19.40
2018-09-11T02:00:38.937Z,19.40
2018-09-11T02:03:10.115Z,19.60
2018-09-11T02:05:41.121Z,19.30
2018-09-11T02:08:12.299Z,19.10
2018-09-11T02:10:43.311Z,19.10
2018-09-11T02:13:14.301Z,19.10
2018-09-11T02:15:45.635Z,19.10
2018-09-11T02:18:17.083Z,19.10
2018-09-11T02:20:48.251Z,19.00
2018-09-11T02:23:19.643Z,19.10
2018-09-11T02:25:50.838Z,19.10
2018-09-11T02:28:22.046Z,18.90
2018-09-11T02:30:54.422Z,18.90
2018-09-11T02:33:25.896Z,18.90
2018-09-11T02:35:57.004Z,19.00
2018-09-11T02:38:28.491Z,19.00
2018-09-11T02:40:59.596Z,19.10
2018-09-11T02:43:30.790Z,18.90
2018-09-11T02:46:02.290Z,18.90
2018-09-11T02:48:33.581Z,19.00
2018-09-11T02:51:04.768Z,18.90
2018-09-11T02:53:35.955Z,18.90
2018-09-11T02:56:07.183Z,18.90
2018-09-11T02:58:38.475Z,18.90
2018-09-11T03:01:09.667Z,18.90
2018-09-11T03:03:40.871Z,18.80
2018-09-11T03:06:12.262Z,18.80
2018-09-11T03:08:43.243Z,18.80
2018-09-11T03:11:14.457Z,18.60
2018-09-11T03:13:45.631Z,18.70
2018-09-11T03:16:17.058Z,18.90
2018-09-11T03:18:48.606Z,19.00
2018-09-11T03:21:19.783Z,19.00
2018-09-11T03:23:51.044Z,18.90
2018-09-11T03:26:22.220Z,18.80
2018-09-11T03:28:53.399Z,18.90
2018-09-11T03:31:24.436Z,19.00
2018-09-11T03:33:55.836Z,18.90
2018-09-11T03:36:27.432Z,18.70
2018-09-11T03:38:58.738Z,18.70
2018-09-11T03:41:29.931Z,18.70
2018-09-11T03:44:01.146Z,18.70
2018-09-11T03:46:32.348Z,18.60
2018-09-11T03:49:03.980Z,18.50
2018-09-11T03:51:35.584Z,18.30
2018-09-11T03:54:06.703Z,18.40
2018-09-11T03:56:38.067Z,18.40
2018-09-11T03:59:09.324Z,18.30
2018-09-11T04:01:40.654Z,18.30
2018-09-11T04:04:12.122Z,18.30
2018-09-11T04:06:43.247Z,18.30
2018-09-11T04:09:14.539Z,18.50
2018-09-11T04:11:45.803Z,18.60
2018-09-11T04:15:20.024Z,18.50
2018-09-11T04:17:51.116Z,18.30
2018-09-11T04:20:22.903Z,18.10
2018-09-11T04:22:54.007Z,18.20
2018-09-11T04:25:25.749Z,18.40
2018-09-11T04:27:57.054Z,18.50
2018-09-11T04:30:28.156Z,18.40
2018-09-11T04:32:59.736Z,18.30
2018-09-11T04:35:31.311Z,18.40
2018-09-11T04:38:02.613Z,18.40
2018-09-11T04:40:33.626Z,18.40
2018-09-11T04:43:05.118Z,18.50
2018-09-11T04:45:36.208Z,18.50
2018-09-11T04:48:07.616Z,18.50
2018-09-11T04:50:38.997Z,18.40
2018-09-11T04:53:10.156Z,18.20
2018-09-11T04:55:41.131Z,18.10
2018-09-11T04:58:12.937Z,18.20
2018-09-11T05:00:44.155Z,18.20
2018-09-11T05:03:15.504Z,18.20
2018-09-11T05:05:46.691Z,18.20
2018-09-11T05:08:17.690Z,18.30
2018-09-11T05:10:49.267Z,18.30
2018-09-11T05:13:20.478Z,18.30
2018-09-11T05:15:52.639Z,18.30
2018-09-11T05:18:24.342Z,18.30
2018-09-11T05:20:55.611Z,18.20
2018-09-11T05:23:26.806Z,18.20
2018-09-11T05:25:57.806Z,18.20
2018-09-11T05:28:29.282Z,18.20
2018-09-11T05:31:00.440Z,18.20
2018-09-11T05:33:31.998Z,18.20
2018-09-11T05:36:02.966Z,18.20
2018-09-11T05:38:33.983Z,18.20
2018-09-11T05:41:05.651Z,18.10
2018-09-11T05:43:37.239Z,18.10
2018-09-11T05:46:08.530Z,18.10
2018-09-11T05:48:39.584Z,18.20
2018-09-11T05:51:10.826Z,18.20
2018-09-11T05:53:42.132Z,18.30
2018-09-11T05:56:13.303Z,18.30
2018-09-11T05:58:44.513Z,18.30
2018-09-11T06:01:15.959Z,18.30
2018-09-11T06:03:48.544Z,18.10
2018-09-11T06:06:19.631Z,18.20
2018-09-11T06:08:50.829Z,18.30
2018-09-11T06:11:22.899Z,18.40
2018-09-11T06:13:54.178Z,18.50
2018-09-11T06:16:26.090Z,18.50
2018-09-11T06:18:57.346Z,18.50
2018-09-11T06:21:28.534Z,18.50
2018-09-11T06:23:59.790Z,18.40
2018-09-11T06:26:31.151Z,18.60
2018-09-11T06:29:02.370Z,18.70
2018-09-11T06:31:34.037Z,18.80
2018-09-11T06:34:05.281Z,18.80
2018-09-11T06:36:36.590Z,18.80
2018-09-11T06:39:10.403Z,18.80
2018-09-11T06:41:41.932Z,18.70
2018-09-11T06:44:13.197Z,18.80
2018-09-11T06:46:44.707Z,18.90
2018-09-11T06:49:15.994Z,19.10
2018-09-11T06:51:47.655Z,19.20
2018-09-11T06:54:18.939Z,19.30
2018-09-11T06:56:50.149Z,19.10
2018-09-11T06:59:21.184Z,19.10
2018-09-11T07:01:52.639Z,19.00
2018-09-11T07:04:23.925Z,19.20
2018-09-11T07:06:55.125Z,19.30
2018-09-11T07:09:26.707Z,19.20
2018-09-11T07:11:57.932Z,19.40
2018-09-11T07:14:29.571Z,19.50
2018-09-11T07:17:00.876Z,19.40
2018-09-11T07:19:31.940Z,19.40
2018-09-11T07:22:03.467Z,19.50
2018-09-11T07:24:36.247Z,19.50
2018-09-11T07:27:07.599Z,19.50
2018-09-11T07:29:38.908Z,19.60
2018-09-11T07:32:10.048Z,19.70
2018-09-11T07:34:41.664Z,19.70
2018-09-11T07:37:12.958Z,19.90
2018-09-11T07:39:44.139Z,20.30
2018-09-11T07:42:15.903Z,20.20
2018-09-11T07:44:46.906Z,20.10
2018-09-11T07:47:18.392Z,20.10
2018-09-11T07:49:49.684Z,20.20
2018-09-11T07:52:21.114Z,20.30
2018-09-11T07:54:52.484Z,20.20
2018-09-11T07:57:24.199Z,20.30
2018-09-11T07:59:55.240Z,20.40
2018-09-11T08:02:26.423Z,20.40
2018-09-11T08:04:57.831Z,20.30
2018-09-11T08:07:28.844Z,20.40
2018-09-11T08:10:00.017Z,20.60
2018-09-11T08:12:31.743Z,20.70
2018-09-11T08:15:03.001Z,20.60
2018-09-11T08:17:34.012Z,20.60
2018-09-11T08:20:05.480Z,20.60
2018-09-11T08:22:36.767Z,20.80
2018-09-11T08:25:08.071Z,21.10
2018-09-11T08:27:39.152Z,21.30
2018-09-11T08:30:10.163Z,21.40
2018-09-11T08:32:41.371Z,21.60
2018-09-11T08:35:12.548Z,21.90
2018-09-11T08:37:43.728Z,22.10
2018-09-11T08:40:15.090Z,22.10
2018-09-11T08:42:46.119Z,22.50
2018-09-11T08:45:23.985Z,22.40
2018-09-11T08:47:56.160Z,22.20
2018-09-11T08:50:27.438Z,22.00
2018-09-11T08:52:58.544Z,22.50
2018-09-11T08:55:29.529Z,23.50
2018-09-11T08:58:00.767Z,24.30
2018-09-11T09:00:32.902Z,24.30
2018-09-11T09:03:03.937Z,25.00
2018-09-11T09:05:35.357Z,26.00
2018-09-11T09:08:06.955Z,25.30
2018-09-11T09:10:38.244Z,24.80
2018-09-11T09:13:09.267Z,24.90
2018-09-11T09:15:40.829Z,24.50
2018-09-11T09:18:12.029Z,24.80
2018-09-11T09:20:43.223Z,25.20
2018-09-11T09:23:14.251Z,25.30
2018-09-11T09:25:46.451Z,25.40
2018-09-11T09:28:17.877Z,26.30
2018-09-11T09:30:48.968Z,26.40
2018-09-11T09:33:20.389Z,26.10
2018-09-11T09:35:52.033Z,25.90
2018-09-11T09:38:23.115Z,26.00
2018-09-11T09:40:54.316Z,26.00
2018-09-11T09:43:25.522Z,25.90
2018-09-11T09:45:57.572Z,26.10
2018-09-11T09:48:28.879Z,26.60
2018-09-11T09:51:00.392Z,27.10
2018-09-11T09:53:31.480Z,26.90
2018-09-11T09:56:02.739Z,26.70
2018-09-11T09:58:33.865Z,27.20
2018-09-11T10:01:09.915Z,27.40
2018-09-11T10:03:41.433Z,27.30
2018-09-11T10:06:12.732Z,27.40
2018-09-11T10:08:43.911Z,27.60
2018-09-11T10:11:15.109Z,28.40
2018-09-11T10:13:46.108Z,27.60
2018-09-11T10:16:17.149Z,27.10
2018-09-11T10:18:48.481Z,27.80
2018-09-11T10:21:19.940Z,28.40
2018-09-11T10:23:51.139Z,28.10
2018-09-11T10:26:22.246Z,28.30
2018-09-11T10:28:53.747Z,28.00
2018-09-11T10:31:24.875Z,28.70
2018-09-11T10:33:56.240Z,30.10
2018-09-11T10:36:27.235Z,29.70
2018-09-11T10:38:58.407Z,29.70
2018-09-11T10:41:29.610Z,29.30
2018-09-11T10:44:00.595Z,29.10
2018-09-11T10:46:31.992Z,29.20
2018-09-11T10:49:03.195Z,30.20
2018-09-11T10:51:34.588Z,29.10
2018-09-11T10:54:05.807Z,29.60
2018-09-11T10:56:36.951Z,29.40
2018-09-11T10:59:08.179Z,30.20
2018-09-11T11:01:39.322Z,30.60
2018-09-11T11:04:10.696Z,30.50
2018-09-11T11:06:41.731Z,31.60
2018-09-11T11:09:12.751Z,32.00
2018-09-11T11:11:44.100Z,32.20
2018-09-11T11:14:15.119Z,31.60
2018-09-11T11:16:46.644Z,32.10
2018-09-11T11:19:17.844Z,31.10
2018-09-11T11:21:48.884Z,31.30
2018-09-11T11:24:20.232Z,31.80
2018-09-11T11:26:52.298Z,31.40
2018-09-11T11:29:23.752Z,31.80
2018-09-11T11:31:54.996Z,32.80
2018-09-11T11:34:26.201Z,32.40
2018-09-11T11:36:57.541Z,32.60
2018-09-11T11:39:29.059Z,32.70
2018-09-11T11:42:00.390Z,32.70
2018-09-11T11:44:31.538Z,33.30
2018-09-11T11:47:03.355Z,33.40
2018-09-11T11:49:34.400Z,33.00
2018-09-11T11:52:06.007Z,32.20
2018-09-11T11:54:37.354Z,32.30
2018-09-11T11:57:08.687Z,32.00
2018-09-11T11:59:39.895Z,31.90
2018-09-11T12:02:11.170Z,32.20
2018-09-11T12:04:42.451Z,33.60
2018-09-11T12:07:13.678Z,33.60
2018-09-11T12:09:44.849Z,33.20
2018-09-11T12:12:16.561Z,32.60
2018-09-11T12:14:47.636Z,33.00
2018-09-11T12:17:25.584Z,33.00
2018-09-11T12:19:56.771Z,33.70
2018-09-11T12:22:28.323Z,33.00
2018-09-11T12:24:59.534Z,33.60
2018-09-11T12:27:30.673Z,34.50
2018-09-11T12:30:02.082Z,34.80
2018-09-11T12:32:33.238Z,34.30
2018-09-11T12:35:05.085Z,33.90
2018-09-11T12:37:36.215Z,34.50
2018-09-11T12:40:07.729Z,33.80
2018-09-11T12:42:38.857Z,33.80
2018-09-11T12:45:10.055Z,34.20
2018-09-11T12:47:41.409Z,34.50
2018-09-11T12:50:12.449Z,34.10
2018-09-11T12:52:43.794Z,35.10
2018-09-11T12:55:15.047Z,34.70
2018-09-11T12:57:46.152Z,34.70
2018-09-11T13:00:17.339Z,34.40
2018-09-11T13:02:48.496Z,34.30
2018-09-11T13:05:19.735Z,33.80
2018-09-11T13:07:51.709Z,33.90
2018-09-11T13:10:22.723Z,33.90
2018-09-11T13:12:54.073Z,33.90
2018-09-11T13:15:25.163Z,34.40
2018-09-11T13:17:56.260Z,34.40
2018-09-11T13:20:27.471Z,34.20
2018-09-11T13:22:58.456Z,34.70
2018-09-11T13:25:29.803Z,35.10
2018-09-11T13:28:00.831Z,35.30
2018-09-11T13:30:32.041Z,35.60
2018-09-11T13:33:03.090Z,34.70
2018-09-11T13:35:34.215Z,34.60
2018-09-11T13:38:05.428Z,35.70
2018-09-11T13:40:36.613Z,35.10
2018-09-11T13:43:07.827Z,33.90
2018-09-11T13:45:39.047Z,33.80
2018-09-11T13:48:10.207Z,33.80
2018-09-11T13:50:41.603Z,35.00
2018-09-11T13:53:12.787Z,34.70
2018-09-11T13:55:44.199Z,35.40
2018-09-11T13:58:15.576Z,35.60
2018-09-11T14:00:46.935Z,35.00
2018-09-11T14:03:18.144Z,33.80
2018-09-11T14:05:49.341Z,34.30
2018-09-11T14:08:20.679Z,35.10
2018-09-11T14:10:51.890Z,34.40
2018-09-11T14:13:22.968Z,34.60
2018-09-11T14:15:54.789Z,34.90
2018-09-11T14:18:26.072Z,35.20
2018-09-11T14:20:57.688Z,34.50
2018-09-11T14:23:28.872Z,34.60
2018-09-11T14:26:00.168Z,34.60
2018-09-11T14:28:31.227Z,34.50
2018-09-11T14:31:02.408Z,34.60
2018-09-11T14:33:33.447Z,33.40
2018-09-11T14:36:04.607Z,32.80
2018-09-11T14:38:35.554Z,33.40
2018-09-11T14:41:06.775Z,32.90
2018-09-11T14:43:37.945Z,32.50
2018-09-11T14:46:09.183Z,32.60
2018-09-11T14:48:40.133Z,33.10
2018-09-11T14:51:11.321Z,33.80
2018-09-11T14:53:42.519Z,33.80
2018-09-11T14:56:13.918Z,33.30
2018-09-11T14:58:45.098Z,33.20
2018-09-11T15:01:16.136Z,32.70
2018-09-11T15:03:47.497Z,33.30
2018-09-11T15:06:19.166Z,33.30
2018-09-11T15:08:50.491Z,33.30
2018-09-11T15:11:21.901Z,33.50
2018-09-11T15:13:53.084Z,33.10
2018-09-11T15:16:24.440Z,32.90
2018-09-11T15:18:55.481Z,33.00
2018-09-11T15:21:27.096Z,33.20
2018-09-11T15:23:58.174Z,33.10
2018-09-11T15:26:30.312Z,32.90
2018-09-11T15:29:01.589Z,32.60
2018-09-11T15:31:32.756Z,32.40
2018-09-11T15:34:03.978Z,32.50
2018-09-11T15:36:35.146Z,32.50
2018-09-11T15:39:07.187Z,32.50
2018-09-11T15:41:38.600Z,32.50
2018-09-11T15:44:09.783Z,32.40
2018-09-11T15:46:41.094Z,31.80
2018-09-11T15:49:12.088Z,31.50
2018-09-11T15:51:44.143Z,31.90
2018-09-11T15:54:15.451Z,32.30
2018-09-11T15:56:46.693Z,32.20
2018-09-11T15:59:18.187Z,32.10
2018-09-11T16:01:49.431Z,31.90
2018-09-11T16:04:20.437Z,32.10
2018-09-11T16:06:51.627Z,32.10
2018-09-11T16:09:22.707Z,31.90
2018-09-11T16:11:54.124Z,32.00
2018-09-11T16:14:25.359Z,32.20
2018-09-11T16:16:56.396Z,32.20
2018-09-11T16:19:27.815Z,32.10
2018-09-11T16:21:59.198Z,32.20
2018-09-11T16:24:30.457Z,32.10
2018-09-11T16:27:02.015Z,31.90
2018-09-11T16:29:33.360Z,31.90
2018-09-11T16:32:04.544Z,31.80
2018-09-11T16:34:35.740Z,31.60
2018-09-11T16:37:06.911Z,31.70
2018-09-11T16:39:38.081Z,31.50
2018-09-11T16:42:09.323Z,31.40
2018-09-11T16:44:40.646Z,31.70
2018-09-11T16:47:11.870Z,31.60
2018-09-11T16:49:43.328Z,31.60
2018-09-11T16:52:15.074Z,31.50
2018-09-11T16:54:46.225Z,31.30
2018-09-11T16:57:17.230Z,31.20
2018-09-11T16:59:48.407Z,31.10
2018-09-11T17:02:19.470Z,31.00
2018-09-11T17:04:50.802Z,31.00
2018-09-11T17:07:22.420Z,30.90
2018-09-11T17:09:53.763Z,30.80
2018-09-11T17:12:24.956Z,30.70
2018-09-11T17:14:56.189Z,30.70
2018-09-11T17:17:28.207Z,30.50
2018-09-11T17:19:59.506Z,30.50
2018-09-11T17:22:30.555Z,30.30
2018-09-11T17:25:01.691Z,30.20
2018-09-11T17:27:33.110Z,30.30
2018-09-11T17:30:04.517Z,30.10
2018-09-11T17:32:36.522Z,30.10
2018-09-11T17:35:07.771Z,30.10
2018-09-11T17:37:39.322Z,30.10
2018-09-11T17:40:10.615Z,30.00
2018-09-11T17:42:41.622Z,30.10
2018-09-11T17:45:12.803Z,30.00
2018-09-11T17:47:44.004Z,30.00
2018-09-11T17:50:15.492Z,30.00
2018-09-11T17:52:46.632Z,29.90
2018-09-11T17:55:18.062Z,29.80
2018-09-11T17:57:49.192Z,29.70
2018-09-11T18:00:21.971Z,29.60
2018-09-11T18:02:53.318Z,29.50
2018-09-11T18:05:24.708Z,29.30
2018-09-11T18:07:55.974Z,29.30
2018-09-11T18:10:27.112Z,29.20
2018-09-11T18:12:58.516Z,29.10
2018-09-11T18:15:29.704Z,29.10
2018-09-11T18:18:01.063Z,29.00
2018-09-11T18:20:32.338Z,28.90
2018-09-11T18:23:03.435Z,28.80
2018-09-11T18:25:35.295Z,28.80
2018-09-11T18:28:06.808Z,28.70
2018-09-11T18:30:38.042Z,28.60
2018-09-11T18:33:09.036Z,28.50
2018-09-11T18:35:40.655Z,28.40
2018-09-11T18:38:11.963Z,28.30
2018-09-11T18:40:43.464Z,28.30
2018-09-11T18:43:14.960Z,28.20
2018-09-11T18:45:46.644Z,28.20
2018-09-11T18:48:17.919Z,28.00
2018-09-11T18:50:49.315Z,28.00
2018-09-11T18:53:20.340Z,27.90
2018-09-11T18:55:51.715Z,27.80
2018-09-11T18:58:23.136Z,27.70
2018-09-11T19:00:54.296Z,27.70
2018-09-11T19:03:25.545Z,27.60
2018-09-11T19:05:56.894Z,27.50
2018-09-11T19:08:28.295Z,27.50
2018-09-11T19:10:59.698Z,27.40
2018-09-11T19:13:30.848Z,27.30
2018-09-11T19:16:02.178Z,27.30
2018-09-11T19:18:33.430Z,27.20
2018-09-11T19:21:04.631Z,27.10
2018-09-11T19:23:36.280Z,27.10
2018-09-11T19:26:07.479Z,27.00
2018-09-11T19:28:38.679Z,26.90
2018-09-11T19:31:10.266Z,26.80
2018-09-11T19:33:41.304Z,26.80
2018-09-11T19:36:12.551Z,26.70
2018-09-11T19:38:43.948Z,26.70
2018-09-11T19:41:15.571Z,26.60
2018-09-11T19:43:46.870Z,26.60
2018-09-11T19:46:17.915Z,26.50
2018-09-11T19:48:49.110Z,26.40
2018-09-11T19:51:20.440Z,26.40
2018-09-11T19:53:51.653Z,26.40
2018-09-11T19:56:22.627Z,26.30
2018-09-11T19:58:54.192Z,26.30
2018-09-11T20:01:25.699Z,26.20
2018-09-11T20:03:56.783Z,26.10
2018-09-11T20:06:28.043Z,26.10
2018-09-11T20:08:59.398Z,26.00
2018-09-11T20:11:30.616Z,25.90
2018-09-11T20:14:02.272Z,25.90
2018-09-11T20:16:33.350Z,25.80
2018-09-11T20:19:04.972Z,25.80
2018-09-11T20:21:36.384Z,25.70
2018-09-11T20:24:07.839Z,25.70
2018-09-11T20:26:39.088Z,25.60
2018-09-11T20:29:10.628Z,25.60
2018-09-11T20:31:41.987Z,25.50
2018-09-11T20:34:13.065Z,25.50
2018-09-11T20:36:44.535Z,25.40
2018-09-11T20:39:16.151Z,25.40
2018-09-11T20:41:47.708Z,25.30
2018-09-11T20:44:19.101Z,25.30
2018-09-11T20:46:50.404Z,25.20
2018-09-11T20:49:21.376Z,25.20
2018-09-11T20:51:52.976Z,25.30
2018-09-11T20:54:24.467Z,25.20
2018-09-11T20:56:56.048Z,25.10
2018-09-11T20:59:27.271Z,25.10
2018-09-11T21:01:58.380Z,25.00
2018-09-11T21:04:29.939Z,24.90
2018-09-11T21:07:01.131Z,24.90
2018-09-11T21:09:32.576Z,24.80
2018-09-11T21:12:03.731Z,24.70
2018-09-11T21:14:35.072Z,24.70
2018-09-11T21:17:06.303Z,24.60
2018-09-11T21:19:37.652Z,24.50
2018-09-11T21:22:09.168Z,24.50
2018-09-11T21:24:40.252Z,24.50
2018-09-11T21:27:11.494Z,24.40
2018-09-11T21:29:42.699Z,24.40
2018-09-11T21:32:13.808Z,24.30
2018-09-11T21:34:45.237Z,24.20
2018-09-11T21:37:16.590Z,24.20
2018-09-11T21:39:48.445Z,24.20
2018-09-11T21:42:19.588Z,24.20
2018-09-11T21:44:50.778Z,24.20
2018-09-11T21:47:22.151Z,24.00
2018-09-11T21:49:53.408Z,23.80
2018-09-11T21:52:24.605Z,23.70
2018-09-11T21:54:55.893Z,23.60
2018-09-11T21:57:27.133Z,23.60
2018-09-11T21:59:58.284Z,23.50
2018-09-11T22:02:29.531Z,23.50
2018-09-11T22:05:01.367Z,23.30
2018-09-11T22:07:32.475Z,23.30
2018-09-11T22:10:03.622Z,23.40
2018-09-11T22:12:34.648Z,23.30
2018-09-11T22:15:06.283Z,23.30
2018-09-11T22:17:37.651Z,23.20
2018-09-11T22:20:09.075Z,23.30
2018-09-11T22:22:40.210Z,23.20
2018-09-11T22:25:11.401Z,23.20
2018-09-11T22:27:42.767Z,23.20
2018-09-11T22:30:13.967Z,23.00
2018-09-11T22:32:45.162Z,22.90
2018-09-11T22:35:16.199Z,22.80
2018-09-11T22:37:47.347Z,22.50
2018-09-11T22:40:18.462Z,22.60
2018-09-11T22:42:49.707Z,22.70
2018-09-11T22:45:20.951Z,22.70
2018-09-11T22:47:52.435Z,22.70
2018-09-11T22:50:23.835Z,22.80
2018-09-11T22:52:55.889Z,22.90
2018-09-11T22:55:27.083Z,22.80
2018-09-11T22:57:58.227Z,22.70
2018-09-11T23:00:29.256Z,22.70
2018-09-11T23:03:00.503Z,22.40
2018-09-11T23:05:31.851Z,22.40
2018-09-11T23:08:03.500Z,22.50
2018-09-11T23:10:34.955Z,22.60
2018-09-11T23:13:06.223Z,22.20
2018-09-11T23:15:37.599Z,22.10
2018-09-11T23:18:08.690Z,21.90
2018-09-11T23:20:40.246Z,21.90
2018-09-11T23:23:12.484Z,21.90
2018-09-11T23:25:43.744Z,22.00
2018-09-11T23:28:15.828Z,22.10
2018-09-11T23:30:47.075Z,22.10
2018-09-11T23:33:18.295Z,22.00
2018-09-11T23:35:50.148Z,22.00
2018-09-11T23:38:21.461Z,21.80
2018-09-11T23:40:53.094Z,21.70
2018-09-11T23:43:24.731Z,21.70
2018-09-11T23:45:56.058Z,21.70
2018-09-11T23:48:27.695Z,21.70
2018-09-11T23:50:58.803Z,21.50
2018-09-11T23:53:30.032Z,21.60
2018-09-11T23:56:01.387Z,21.50
2018-09-11T23:58:32.792Z,21.50
